Time;durP1;ratioP1;P1;durP2;ratioP2;P2;SDS_P1;SDS_P2;PMS_P1;PMS_P2;Temp;Humidity;BMP_temperature;BMP_pressure;BME280_temperature;BME280_humidity;BME280_pressure;Samples;Min_cycle;Max_cycle;Signal;HPM_P1;HPM_P2
2023/04/02 00:00:10;;;;;;;4.30;1.10;;;;;;;13.26;65.99;99482.78;4969975;28;20045;-86
2023/04/02 00:02:48;;;;;;;3.72;1.30;;;;;;;13.25;66.09;99482.94;4970445;28;20034;-85
2023/04/02 00:05:19;;;;;;;1.80;1.13;;;;;;;13.21;66.12;99476.22;4970270;28;20063;-86
2023/04/02 00:07:50;;;;;;;2.05;1.10;;;;;;;13.18;65.80;99471.13;4970645;28;20606;-86
2023/04/02 00:10:35;;;;;;;3.40;1.13;;;;;;;13.15;66.13;99476.88;4953933;28;20054;-86
2023/04/02 00:13:06;;;;;;;3.20;1.30;;;;;;;13.11;66.23;99484.47;4969986;28;20114;-86
2023/04/02 00:15:32;;;;;;;2.88;1.45;;;;;;;13.02;66.41;99467.41;4970616;28;20042;-85
2023/04/02 00:17:59;;;;;;;1.80;1.23;;;;;;;13.11;66.30;99462.88;4971533;28;20086;-88
2023/04/02 00:20:26;;;;;;;2.47;1.17;;;;;;;13.09;66.02;99468.44;4972984;28;20042;-85
2023/04/02 00:22:53;;;;;;;2.42;1.10;;;;;;;12.89;65.85;99469.75;4993598;28;20050;-84
2023/04/02 00:25:19;;;;;;;1.20;1.10;;;;;;;12.89;66.22;99467.06;4992408;28;21204;-85
2023/04/02 00:27:45;;;;;;;5.38;0.95;;;;;;;12.78;66.58;99470.06;5002375;28;20039;-87
2023/04/02 00:30:14;;;;;;;1.02;0.93;;;;;;;12.85;66.10;99468.38;5013017;28;20064;-83
2023/04/02 00:32:41;;;;;;;30.02;4.45;;;;;;;12.79;65.74;99474.47;5015528;28;20081;-84
2023/04/02 00:35:27;;;;;;;2.72;1.33;;;;;;;12.81;65.47;99485.91;5001291;28;20035;-84
2023/04/02 00:37:54;;;;;;;1.60;1.40;;;;;;;12.78;65.41;99488.94;4974354;28;20050;-85
2023/04/02 00:40:24;;;;;;;1.00;0.90;;;;;;;12.72;65.48;99489.59;4972921;28;20051;-86
2023/04/02 00:42:52;;;;;;;1.33;1.05;;;;;;;12.76;65.03;99485.56;4951786;28;20198;-84
2023/04/02 00:45:27;;;;;;;5.55;0.95;;;;;;;12.55;64.78;99466.31;4950299;28;20070;-86
2023/04/02 00:47:55;;;;;;;1.15;1.10;;;;;;;12.54;64.84;99470.03;4953098;28;20039;-86
2023/04/02 00:50:31;;;;;;;5.30;1.20;;;;;;;12.47;65.86;99490.59;4949344;28;20149;-86
2023/04/02 00:52:59;;;;;;;3.15;1.23;;;;;;;12.48;65.63;99481.47;4967409;28;20031;-85
2023/04/02 00:55:37;;;;;;;2.92;1.60;;;;;;;12.44;65.75;99477.44;4971620;28;20113;-86
2023/04/02 00:58:20;;;;;;;7.75;1.10;;;;;;;12.41;65.85;99475.06;4991055;28;20030;-86
2023/04/02 01:00:49;;;;;;;2.25;1.20;;;;;;;12.34;65.86;99474.03;4990899;28;20041;-86
2023/04/02 01:03:21;;;;;;;4.13;1.15;;;;;;;12.28;65.85;99485.47;4989886;28;20145;-86
2023/04/02 01:06:09;;;;;;;1.38;1.10;;;;;;;12.26;66.45;99498.28;4990520;28;20034;-87
2023/04/02 01:09:06;;;;;;;2.60;0.95;;;;;;;12.23;66.26;99482.44;4990927;28;20035;-86
2023/04/02 01:12:07;;;;;;;4.60;1.10;;;;;;;12.18;66.64;99479.34;4910270;29;20111;-85
2023/04/02 01:14:53;;;;;;;1.20;1.10;;;;;;;12.17;66.89;99491.16;4908896;29;20408;-86
2023/04/02 01:17:29;;;;;;;4.70;1.58;;;;;;;12.16;66.32;99493.00;4910267;29;20038;-85
2023/04/02 01:20:11;;;;;;;8.50;1.75;;;;;;;12.10;66.85;99492.81;4894439;29;20079;-86
2023/04/02 01:22:49;;;;;;;7.57;1.55;;;;;;;12.09;67.37;99485.72;4895018;29;20052;-85
2023/04/02 01:25:47;;;;;;;5.50;1.33;;;;;;;12.08;67.51;99474.09;4912023;29;20032;-86
2023/04/02 01:28:19;;;;;;;2.20;1.58;;;;;;;12.16;67.23;99482.22;4859028;29;20048;-85
2023/04/02 01:30:52;;;;;;;4.00;2.70;;;;;;;12.22;67.21;99486.97;4851824;29;20040;-86
2023/04/02 01:33:21;;;;;;;4.88;2.58;;;;;;;12.13;67.62;99481.72;4856878;29;20042;-86
2023/04/02 01:35:56;;;;;;;4.93;3.10;;;;;;;12.07;67.17;99477.81;4859295;29;20049;-87
2023/04/02 01:38:37;;;;;;;6.93;3.50;;;;;;;12.17;67.28;99499.25;4840438;29;20030;-86
2023/04/02 01:41:17;;;;;;;4.45;3.08;;;;;;;12.03;67.26;99479.13;4835511;29;20046;-87
2023/04/02 01:43:52;;;;;;;3.92;3.53;;;;;;;12.13;67.54;99484.41;4835769;29;20037;-85
2023/04/02 01:46:30;;;;;;;5.45;3.65;;;;;;;12.20;67.33;99496.22;4820744;29;20454;-87
2023/04/02 01:48:58;;;;;;;5.20;3.00;;;;;;;12.21;66.90;99492.50;4906011;29;20066;-89
2023/04/02 01:51:30;;;;;;;6.45;3.05;;;;;;;12.22;67.04;99486.97;4933416;28;20053;-85
2023/04/02 01:53:59;;;;;;;4.23;2.87;;;;;;;12.19;67.09;99476.50;4948297;28;20055;-85
2023/04/02 01:56:26;;;;;;;5.85;2.90;;;;;;;12.14;66.98;99478.84;4947794;29;20038;-87
2023/04/02 01:58:52;;;;;;;8.00;3.35;;;;;;;12.21;66.80;99479.03;4947654;29;20499;-84
2023/04/02 02:01:22;;;;;;;3.30;2.60;;;;;;;12.25;66.85;99485.78;4947974;28;20059;-85
2023/04/02 02:03:49;;;;;;;2.50;2.17;;;;;;;12.30;66.81;99475.34;4947348;28;20034;-86
2023/04/02 02:06:16;;;;;;;5.88;2.33;;;;;;;12.25;66.42;99493.88;4983814;28;20050;-84
2023/04/02 02:09:10;;;;;;;3.95;2.15;;;;;;;12.14;66.93;99478.03;4988523;28;20026;-85
2023/04/02 02:11:35;;;;;;;2.85;2.25;;;;;;;12.12;66.97;99482.69;4988612;28;20041;-84
2023/04/02 02:14:13;;;;;;;6.43;2.40;;;;;;;12.11;67.32;99494.50;4987330;28;20034;-85
2023/04/02 02:16:40;;;;;;;8.23;2.58;;;;;;;12.12;67.11;99488.94;4988628;28;20599;-88
2023/04/02 02:19:17;;;;;;;4.80;2.50;;;;;;;12.20;67.17;99488.97;4989290;28;20125;-86
2023/04/02 02:21:47;;;;;;;2.58;1.77;;;;;;;12.19;66.58;99491.84;4988065;28;20027;-84
2023/04/02 02:24:22;;;;;;;5.55;2.08;;;;;;;12.24;67.22;99484.94;4989234;28;20077;-85
2023/04/02 02:27:00;;;;;;;4.10;1.95;;;;;;;12.19;66.72;99473.81;4991362;28;20454;-85
2023/04/02 02:29:30;;;;;;;4.95;2.00;;;;;;;12.23;66.44;99487.81;4998073;28;20022;-86
2023/04/02 02:31:58;;;;;;;2.72;2.00;;;;;;;12.29;66.28;99496.06;5011267;28;20042;-85
2023/04/02 02:34:36;;;;;;;2.95;2.15;;;;;;;12.31;66.37;99501.31;5005796;28;20712;-86
2023/04/02 02:37:09;;;;;;;9.07;2.60;;;;;;;12.28;66.57;99496.25;4988473;28;20034;-84
2023/04/02 02:39:48;;;;;;;8.95;2.90;;;;;;;12.31;66.44;99504.00;4988727;28;20084;-85
2023/04/02 02:42:45;;;;;;;5.43;3.65;;;;;;;12.36;66.34;99507.06;4988623;28;20494;-85
2023/04/02 02:45:20;;;;;;;5.70;4.03;;;;;;;12.31;66.50;99507.56;4988454;28;20034;-85
2023/04/02 02:47:48;;;;;;;6.50;4.25;;;;;;;12.33;66.33;99504.69;4988409;28;20034;-85
2023/04/02 02:50:23;;;;;;;4.45;3.50;;;;;;;12.44;65.93;99517.88;4988302;28;20038;-85
2023/04/02 02:52:54;;;;;;;7.28;4.05;;;;;;;12.52;66.09;99509.81;4992326;28;20161;-87
2023/04/02 02:55:35;;;;;;;5.10;3.65;;;;;;;12.53;65.66;99515.06;4992840;28;20022;-86
2023/04/02 02:58:07;;;;;;;7.00;3.92;;;;;;;12.53;65.43;99519.59;4992393;28;20026;-84
2023/04/02 03:00:34;;;;;;;6.30;3.25;;;;;;;12.56;65.57;99516.56;4991375;28;20453;-83
2023/04/02 03:03:05;;;;;;;3.45;2.70;;;;;;;12.59;65.16;99521.63;4992826;28;20027;-85
2023/04/02 03:05:30;;;;;;;7.32;3.63;;;;;;;12.64;65.27;99524.66;4992181;28;20093;-85
2023/04/02 03:07:58;;;;;;;5.13;4.03;;;;;;;12.65;65.23;99530.91;4992361;28;20026;-84
2023/04/02 03:10:49;;;;;;;8.52;3.85;;;;;;;12.58;65.17;99519.94;4992129;28;20031;-86
2023/04/02 03:13:31;;;;;;;6.90;4.43;;;;;;;12.78;64.94;99537.50;4993516;28;20509;-86
2023/04/02 03:16:12;;;;;;;9.00;4.97;;;;;;;12.85;64.58;99538.53;4993034;28;20058;-85
2023/04/02 03:18:55;;;;;;;9.00;4.95;;;;;;;12.96;64.47;99540.94;4993063;28;20036;-86
2023/04/02 03:21:33;;;;;;;;;;;;;;;13.04;64.23;99542.78;4995544;28;20086;-84
2023/04/02 03:24:08;;;;;;;12.15;5.88;;;;;;;13.04;64.20;99540.94;4994462;28;19922;-85
2023/04/02 03:26:33;;;;;;;10.90;5.80;;;;;;;13.12;64.07;99528.50;4998715;28;20089;-85
2023/04/02 03:29:12;;;;;;;13.90;5.97;;;;;;;13.13;63.65;99539.13;5014154;28;20034;-87
2023/04/02 03:31:43;;;;;;;8.70;6.95;;;;;;;13.07;63.67;99543.31;5007289;28;20038;-87
2023/04/02 03:34:19;;;;;;;14.85;6.57;;;;;;;13.12;63.49;99537.44;4992145;28;20126;-86
2023/04/02 03:36:56;;;;;;;12.88;7.35;;;;;;;13.15;63.09;99534.38;4991397;28;20053;-86
2023/04/02 03:39:42;;;;;;;18.83;7.38;;;;;;;13.09;63.53;99535.91;4991704;28;20022;-87
2023/04/02 03:42:38;;;;;;;15.38;7.22;;;;;;;13.11;63.65;99526.81;4991732;28;20038;-85
2023/04/02 03:45:11;;;;;;;10.60;8.63;;;;;;;13.09;63.53;99519.72;4992189;28;20026;-85
2023/04/02 03:47:56;;;;;;;16.38;8.18;;;;;;;13.13;63.59;99522.06;4991980;28;20113;-85
2023/04/02 03:50:32;;;;;;;12.05;9.07;;;;;;;13.09;63.46;99522.41;4990756;28;20409;-85
2023/04/02 03:52:59;;;;;;;12.77;7.88;;;;;;;12.92;63.87;99519.84;4992572;28;20038;-85
2023/04/02 03:55:29;;;;;;;10.57;8.18;;;;;;;12.94;63.73;99523.19;4992072;28;20054;-85
2023/04/02 03:58:05;;;;;;;14.90;8.50;;;;;;;12.85;64.50;99535.84;4992289;28;20585;-85
2023/04/02 04:00:49;;;;;;;13.55;8.55;;;;;;;12.92;64.50;99542.28;4991790;28;20026;-86
2023/04/02 04:03:17;;;;;;;17.50;7.15;;;;;;;12.92;64.64;99553.06;4972538;28;20046;-86
2023/04/02 04:05:57;;;;;;;17.63;7.50;;;;;;;12.93;64.15;99549.38;4972649;28;20552;-85
2023/04/02 04:08:33;;;;;;;13.43;7.68;;;;;;;12.86;64.64;99540.25;4972170;28;20035;-85
2023/04/02 04:11:06;;;;;;;16.95;7.38;;;;;;;12.87;64.53;99550.00;4975008;28;20026;-85
2023/04/02 04:13:43;;;;;;;11.13;7.90;;;;;;;12.97;64.62;99564.19;4994114;28;20030;-87
2023/04/02 04:16:15;;;;;;;22.33;9.32;;;;;;;13.07;64.47;99575.69;4993040;28;20042;-86
2023/04/02 04:19:16;;;;;;;24.37;9.57;;;;;;;13.11;64.11;99568.16;4995454;28;20042;-86
2023/04/02 04:21:44;;;;;;;18.80;10.15;;;;;;;12.91;64.96;99556.78;4935283;28;20047;-87
2023/04/02 04:24:22;;;;;;;12.38;9.10;;;;;;;13.04;64.81;99561.69;4945884;29;20055;-82
2023/04/02 04:27:17;;;;;;;17.70;8.98;;;;;;;13.13;64.44;99563.41;4955139;29;20035;-84
2023/04/02 04:30:04;;;;;;;14.65;8.68;;;;;;;13.11;64.20;99556.50;4944820;29;20035;-88
2023/04/02 04:32:34;;;;;;;12.18;7.68;;;;;;;13.21;64.26;99570.69;4936334;29;20114;-88
2023/04/02 04:35:23;;;;;;;19.08;7.03;;;;;;;13.33;64.09;99575.56;4918519;29;20023;-90
2023/04/02 04:37:57;;;;;;;18.73;7.50;;;;;;;13.35;63.70;99562.78;4933409;29;20039;-86
2023/04/02 04:40:31;;;;;;;16.33;7.72;;;;;;;13.36;63.82;99571.72;4935411;29;20130;-86
2023/04/02 04:43:02;;;;;;;18.63;8.73;;;;;;;13.41;63.46;99572.06;4933438;29;20057;-82
2023/04/02 04:45:33;;;;;;;12.60;6.75;;;;;;;13.44;63.35;99585.22;4918257;29;20106;-86
2023/04/02 04:48:25;;;;;;;15.40;7.57;;;;;;;13.34;63.02;99569.16;4936949;29;20134;-84
2023/04/02 04:51:01;;;;;;;13.73;8.93;;;;;;;13.42;62.74;99589.94;4923837;29;20064;-84
2023/04/02 04:53:28;;;;;;;20.50;8.15;;;;;;;13.31;62.86;99580.31;4895912;29;20103;-83
2023/04/02 04:55:57;;;;;;;12.20;8.13;;;;;;;13.40;63.08;99587.41;4902059;29;20071;-84
2023/04/02 04:58:51;;;;;;;15.73;8.18;;;;;;;13.33;62.93;99580.97;4920540;28;20039;-86
2023/04/02 05:01:26;;;;;;;14.90;9.02;;;;;;;13.38;63.12;99589.44;4899914;29;20045;-90
2023/04/02 05:04:06;;;;;;;12.95;7.55;;;;;;;13.46;62.92;99602.94;4894929;29;20041;-88
2023/04/02 05:06:58;;;;;;;22.65;9.60;;;;;;;13.51;62.74;99607.84;4893926;29;20684;-87
2023/04/02 05:09:24;;;;;;;;;;;;;;;13.50;62.61;99609.69;4893879;29;20607;-84
2023/04/02 05:12:35;;;;;;;15.93;6.77;;;;;;;13.44;63.17;99606.81;4892813;29;19960;-85
2023/04/02 05:15:16;;;;;;;27.30;9.07;;;;;;;13.36;63.17;99602.25;4895569;29;20284;-86
2023/04/02 05:17:50;;;;;;;17.02;6.90;;;;;;;13.54;63.11;99621.03;4898289;29;20104;-88
2023/04/02 05:20:39;;;;;;;16.10;8.23;;;;;;;13.65;62.72;99620.66;4900364;29;20039;-88
2023/04/02 05:23:18;;;;;;;16.55;7.00;;;;;;;13.75;62.52;99618.66;4915757;29;20084;-89
2023/04/02 05:26:31;;;;;;;8.93;5.13;;;;;;;13.89;62.06;99623.34;4916728;29;20052;-87
2023/04/02 05:29:08;;;;;;;14.23;4.97;;;;;;;13.82;61.83;99619.63;4851324;29;20116;-85
2023/04/02 05:31:45;;;;;;;7.68;4.40;;;;;;;13.90;61.99;99627.75;4855446;29;20061;-83
2023/04/02 05:34:12;;;;;;;15.95;4.22;;;;;;;14.05;61.73;99614.38;4855714;29;20132;-87
2023/04/02 05:36:45;;;;;;;9.75;4.82;;;;;;;14.08;61.55;99614.91;5148584;27;20412;-82
2023/04/02 05:39:11;;;;;;;8.60;5.18;;;;;;;14.29;61.06;99621.59;5131208;27;20058;-85
2023/04/02 05:41:40;;;;;;;10.38;3.58;;;;;;;14.39;60.85;99614.19;5130180;27;20020;-87
2023/04/02 05:44:28;;;;;;;11.25;4.80;;;;;;;14.50;60.15;99602.97;5146468;27;20053;-86
2023/04/02 05:47:01;;;;;;;12.80;4.70;;;;;;;14.56;60.17;99618.50;5149775;28;20059;-85
2023/04/02 05:49:41;;;;;;;7.65;5.18;;;;;;;14.55;60.18;99616.84;5145680;28;20034;-86
2023/04/02 05:52:14;;;;;;;9.70;5.18;;;;;;;14.57;59.75;99625.59;5138627;28;20106;-90
2023/04/02 05:54:47;;;;;;;13.25;4.53;;;;;;;14.52;59.43;99623.44;5128779;28;20038;-88
2023/04/02 05:57:20;;;;;;;6.22;4.07;;;;;;;14.39;59.74;99616.88;5128029;28;20581;-88
2023/04/02 05:59:54;;;;;;;8.32;4.03;;;;;;;14.50;59.35;99620.03;5128785;27;20039;-89
2023/04/02 06:02:35;;;;;;;8.90;4.50;;;;;;;14.50;59.49;99630.03;5108786;27;20473;-89
2023/04/02 06:05:03;;;;;;;8.52;4.63;;;;;;;14.65;59.78;99639.09;5126005;27;20039;-90
2023/04/02 06:07:39;;;;;;;9.77;5.30;;;;;;;14.76;59.27;99646.84;5107202;28;20088;-90
2023/04/02 06:10:10;;;;;;;8.85;4.25;;;;;;;14.98;59.15;99646.06;5129084;28;20033;-87
2023/04/02 06:12:54;;;;;;;6.07;4.18;;;;;;;15.07;58.96;99634.19;5133210;28;20031;-89
2023/04/02 06:15:22;;;;;;;11.40;3.65;;;;;;;15.14;58.58;99632.44;5137754;28;20076;-85
2023/04/02 06:17:58;;;;;;;10.10;3.80;;;;;;;15.31;58.56;99635.06;5137651;28;20467;-84
2023/04/02 06:20:24;;;;;;;5.30;3.22;;;;;;;15.55;57.39;99640.34;5151732;28;20058;-83
2023/04/02 06:23:04;;;;;;;7.93;3.88;;;;;;;15.81;56.60;99637.25;5150142;28;20298;-87
2023/04/02 06:25:35;;;;;;;5.43;3.58;;;;;;;15.94;55.83;99641.03;5128237;27;20031;-88
2023/04/02 06:28:05;;;;;;;8.50;3.85;;;;;;;16.14;55.67;99639.50;5126845;27;20042;-88
2023/04/02 06:30:36;;;;;;;14.05;4.20;;;;;;;16.34;55.25;99646.06;5125004;27;20107;-90
2023/04/02 06:33:02;;;;;;;10.02;3.60;;;;;;;16.56;54.80;99648.91;5125455;27;20035;-88
2023/04/02 06:35:28;;;;;;;10.50;3.63;;;;;;;16.70;53.92;99642.63;5125784;27;20059;-86
2023/04/02 06:37:58;;;;;;;9.20;3.33;;;;;;;16.75;53.55;99651.06;5107651;28;20023;-83
2023/04/02 06:40:29;;;;;;;13.88;3.45;;;;;;;16.94;53.61;99652.38;5121162;28;20106;-82
2023/04/02 06:42:58;;;;;;;4.63;2.83;;;;;;;16.95;52.91;99632.31;5124494;28;20059;-82
2023/04/02 06:45:31;;;;;;;5.38;2.92;;;;;;;16.86;52.84;99637.00;5123549;27;20103;-83
2023/04/02 06:48:00;;;;;;;3.97;2.75;;;;;;;17.00;52.72;99644.28;5051652;28;20041;-84
2023/04/02 06:50:47;;;;;;;4.90;3.30;;;;;;;16.99;52.52;99650.78;5047592;28;20044;-85
2023/04/02 06:53:35;;;;;;;25.45;4.30;;;;;;;17.07;52.13;99645.22;5042285;28;20947;-83
2023/04/02 06:56:09;;;;;;;7.47;3.33;;;;;;;17.06;51.96;99657.13;5046890;28;20024;-82
2023/04/02 06:58:35;;;;;;;9.52;3.08;;;;;;;17.01;51.92;99643.25;5044606;28;20049;-82
2023/04/02 07:01:00;;;;;;;8.52;2.65;;;;;;;16.85;52.18;99649.75;5048377;28;20534;-84
2023/04/02 07:03:29;;;;;;;5.15;2.83;;;;;;;16.76;52.47;99655.44;5048726;28;20043;-83
2023/04/02 07:05:55;;;;;;;6.40;1.90;;;;;;;16.62;52.71;99651.72;5047832;28;20048;-81
2023/04/02 07:08:21;;;;;;;7.13;1.98;;;;;;;16.60;53.20;99659.22;5042240;28;20037;-82
2023/04/02 07:10:47;;;;;;;8.57;2.50;;;;;;;16.59;53.71;99656.69;5042434;28;20115;-84
2023/04/02 07:13:21;;;;;;;11.95;2.90;;;;;;;16.67;53.28;99656.59;5053887;28;20149;-83
2023/04/02 07:15:49;;;;;;;4.28;1.42;;;;;;;16.75;53.21;99649.22;5069386;28;20037;-84
2023/04/02 07:18:29;;;;;;;13.25;2.00;;;;;;;16.90;53.01;99651.91;5067680;28;20104;-82
2023/04/02 07:20:55;;;;;;;5.97;2.33;;;;;;;17.08;52.75;99655.06;5054385;28;20095;-87
2023/04/02 07:23:21;;;;;;;12.32;2.30;;;;;;;16.99;52.60;99669.78;5047443;28;20052;-83
2023/04/02 07:25:48;;;;;;;4.45;1.77;;;;;;;16.94;52.24;99663.25;5088846;28;20039;-83
2023/04/02 07:28:14;;;;;;;3.60;1.58;;;;;;;16.75;52.62;99664.66;5110544;28;20060;-84
2023/04/02 07:30:40;;;;;;;4.10;2.03;;;;;;;16.80;52.92;99679.34;5110416;28;20023;-83
2023/04/02 07:33:05;;;;;;;7.22;2.05;;;;;;;16.83;52.72;99683.56;5110792;28;20035;-86
2023/04/02 07:35:31;;;;;;;13.50;2.15;;;;;;;16.83;52.62;99688.97;5110165;28;20470;-87
2023/04/02 07:37:56;;;;;;;7.30;2.28;;;;;;;16.90;52.51;99689.94;5110066;28;20046;-79
2023/04/02 07:40:23;;;;;;;23.42;2.33;;;;;;;16.72;52.39;99687.59;5109636;28;20028;-82
2023/04/02 07:42:48;;;;;;;11.25;1.88;;;;;;;16.41;53.54;99689.59;5110029;28;20505;-82
2023/04/02 07:45:14;;;;;;;2.95;1.70;;;;;;;16.47;53.62;99701.56;5109953;28;20058;-86
2023/04/02 07:47:41;;;;;;;4.10;1.98;;;;;;;16.43;53.50;99687.53;5110902;28;20035;-88
2023/04/02 07:50:07;;;;;;;8.10;2.15;;;;;;;16.49;53.58;99707.66;5113590;28;20134;-85
2023/04/02 07:52:42;;;;;;;4.93;1.55;;;;;;;16.45;54.04;99709.88;5120150;28;20126;-90
2023/04/02 07:55:12;;;;;;;3.83;1.92;;;;;;;16.46;53.91;99714.28;5076265;28;20039;-91
2023/04/02 07:57:58;;;;;;;8.23;1.98;;;;;;;16.41;54.13;99710.44;5115298;28;20068;-90
2023/04/02 08:00:25;;;;;;;6.47;2.30;;;;;;;16.21;54.51;99727.25;5112631;28;20023;-85
2023/04/02 08:02:51;;;;;;;7.57;2.22;;;;;;;16.09;55.00;99727.84;5111618;28;20790;-87
2023/04/02 08:05:17;;;;;;;4.15;2.38;;;;;;;16.05;55.06;99730.13;5112693;28;20414;-84
2023/04/02 08:07:43;;;;;;;3.95;2.72;;;;;;;16.03;55.30;99732.16;5114532;28;20034;-85
2023/04/02 08:10:11;;;;;;;12.30;2.70;;;;;;;15.87;55.66;99723.31;5112715;28;20042;-85
2023/04/02 08:12:37;;;;;;;5.35;2.13;;;;;;;15.66;55.98;99711.22;5124194;28;20039;-83
2023/04/02 08:17:36;;;;;;;6.28;2.70;;;;;;;15.63;56.88;99732.41;5092664;28;20055;-87
2023/04/02 08:20:03;;;;;;;5.53;2.75;;;;;;;15.63;56.56;99732.41;5072421;28;20032;-89
2023/04/02 08:22:29;;;;;;;10.45;3.25;;;;;;;15.60;56.84;99743.63;5084139;28;20024;-88
2023/04/02 08:24:55;;;;;;;7.75;2.33;;;;;;;15.67;56.96;99736.47;5094467;28;20046;-87
2023/04/02 08:27:21;;;;;;;9.10;2.08;;;;;;;15.74;56.41;99742.88;5093722;28;20028;-89
2023/04/02 08:29:47;;;;;;;5.07;2.83;;;;;;;15.57;57.07;99736.69;5098116;28;20035;-85
2023/04/02 08:32:17;;;;;;;11.00;2.55;;;;;;;15.69;57.02;99742.53;5091705;28;20467;-85
2023/04/02 08:34:43;;;;;;;6.25;1.83;;;;;;;15.82;56.24;99736.53;5087004;28;20027;-88
2023/04/02 08:37:12;;;;;;;6.28;2.60;;;;;;;15.77;56.24;99734.38;5090792;28;20004;-87
2023/04/02 08:39:38;;;;;;;8.65;2.63;;;;;;;16.00;56.06;99732.50;5084473;28;20024;-91
2023/04/02 08:42:15;;;;;;;9.55;2.13;;;;;;;16.24;55.27;99747.72;5079703;28;20157;-89
2023/04/02 08:45:05;;;;;;;5.30;1.85;;;;;;;16.29;54.48;99729.06;5054401;28;20040;-89
2023/04/02 08:47:39;;;;;;;4.18;1.58;;;;;;;16.38;53.49;99737.97;5087417;28;20021;-89
2023/04/02 08:50:21;;;;;;;3.80;1.80;;;;;;;16.50;53.45;99725.63;5066939;28;20444;-90
2023/04/02 08:52:46;;;;;;;32.58;4.32;;;;;;;16.60;52.98;99726.25;5077741;28;20158;-87
2023/04/02 08:55:46;;;;;;;6.72;1.73;;;;;;;16.76;52.99;99739.63;5081531;28;20045;-90
2023/04/02 08:58:23;;;;;;;4.65;2.10;;;;;;;16.80;52.84;99751.81;4989969;28;20564;-86
2023/04/02 09:00:55;;;;;;;4.53;2.83;;;;;;;16.95;52.73;99758.09;4988178;28;20038;-84
2023/04/02 09:03:28;;;;;;;8.38;1.77;;;;;;;17.08;52.26;99757.44;4989427;28;20039;-85
2023/04/02 09:05:56;;;;;;;3.50;1.95;;;;;;;17.20;52.01;99767.66;4989168;28;20670;-84
2023/04/02 09:08:24;;;;;;;4.07;1.70;;;;;;;17.29;51.44;99742.06;4996682;28;20097;-82
2023/04/02 09:10:52;;;;;;;4.78;2.30;;;;;;;17.53;51.44;99756.38;5010316;28;20785;-85
2023/04/02 09:13:28;;;;;;;7.28;2.30;;;;;;;17.51;51.08;99755.72;4996623;28;20045;-84
2023/04/02 09:16:07;;;;;;;7.13;1.48;;;;;;;17.58;50.68;99754.81;4996502;28;20058;-86
2023/04/02 09:18:33;;;;;;;5.70;1.67;;;;;;;17.56;50.66;99756.88;5009496;28;20061;-86
2023/04/02 09:21:02;;;;;;;6.00;1.90;;;;;;;17.62;50.73;99766.97;4999885;28;20094;-82
2023/04/02 09:23:27;;;;;;;5.45;2.88;;;;;;;17.35;51.42;99752.19;4992926;28;20053;-85
2023/04/02 09:25:54;;;;;;;9.35;2.70;;;;;;;17.31;51.66;99778.06;4997604;28;20027;-85
2023/04/02 09:28:22;;;;;;;6.47;2.30;;;;;;;17.29;52.27;99777.41;4994761;28;20052;-84
2023/04/02 09:31:11;;;;;;;7.95;2.53;;;;;;;17.31;52.47;99763.59;4993518;28;20529;-82
2023/04/02 09:33:48;;;;;;;7.60;2.63;;;;;;;17.40;52.31;99763.31;4991955;28;20092;-83
2023/04/02 09:36:33;;;;;;;8.20;2.20;;;;;;;17.48;52.63;99759.66;5086809;28;20040;-83
2023/04/02 09:39:18;;;;;;;12.38;3.00;;;;;;;17.81;51.94;99762.81;5098507;28;20042;-84
2023/04/02 09:41:45;;;;;;;5.60;1.38;;;;;;;17.87;51.50;99759.31;5076845;28;20028;-83
2023/04/02 09:44:31;;;;;;;3.70;1.92;;;;;;;17.89;51.22;99762.69;5092492;28;20030;-81
2023/04/02 09:47:23;;;;;;;9.05;2.70;;;;;;;17.88;50.94;99761.00;5092464;28;20047;-80
2023/04/02 09:49:50;;;;;;;5.90;2.05;;;;;;;17.87;50.79;99759.31;5096969;28;20065;-81
2023/04/02 09:52:28;;;;;;;11.18;2.03;;;;;;;17.99;51.11;99763.22;5099817;28;20052;-83
2023/04/02 09:55:25;;;;;;;5.43;2.78;;;;;;;18.29;50.39;99774.81;5072855;28;20040;-82
2023/04/02 09:58:07;;;;;;;7.55;2.55;;;;;;;18.47;49.99;99773.31;5072774;28;20024;-84
2023/04/02 10:00:33;;;;;;;2.25;1.55;;;;;;;18.49;49.32;99754.09;5073846;28;20436;-81
2023/04/02 10:03:28;;;;;;;4.45;2.10;;;;;;;18.54;49.23;99770.66;5082650;28;20029;-83
2023/04/02 10:06:05;;;;;;;9.10;2.60;;;;;;;18.58;49.22;99757.50;5015721;28;20050;-81
2023/04/02 10:08:31;;;;;;;2.95;1.70;;;;;;;18.73;48.76;99755.53;5001666;28;20061;-84
2023/04/02 10:11:00;;;;;;;1.73;1.58;;;;;;;18.96;48.36;99764.28;5014502;28;20054;-82
2023/04/02 10:13:30;;;;;;;3.95;1.98;;;;;;;19.10;47.79;99746.97;4994800;28;20036;-81
2023/04/02 10:16:04;;;;;;;11.05;3.20;;;;;;;19.21;47.33;99748.28;5010155;28;20161;-81
2023/04/02 10:18:40;;;;;;;8.05;3.47;;;;;;;19.30;47.65;99757.97;5012587;28;20438;-78
2023/04/02 10:21:09;;;;;;;6.32;2.83;;;;;;;19.25;47.42;99758.59;5012652;28;20603;-80
2023/04/02 10:23:35;;;;;;;12.65;3.25;;;;;;;19.29;47.45;99757.16;5017283;28;20038;-81
2023/04/02 10:26:15;;;;;;;4.85;2.40;;;;;;;19.38;47.31;99782.38;5022316;28;20088;-80
2023/04/02 10:28:44;;;;;;;4.53;2.28;;;;;;;19.28;47.48;99777.28;5017781;28;20084;-80
2023/04/02 10:31:21;;;;;;;6.63;2.78;;;;;;;19.15;47.81;99782.63;5016722;28;20041;-81
2023/04/02 10:33:51;;;;;;;23.23;4.85;;;;;;;19.02;48.04;99793.44;5014460;28;20033;-81
2023/04/02 10:36:26;;;;;;;12.27;2.17;;;;;;;18.92;48.62;99798.44;5021700;28;20517;-80
2023/04/02 10:39:07;;;;;;;3.30;2.08;;;;;;;18.94;48.31;99780.00;5027885;28;20030;-81
2023/04/02 10:42:11;;;;;;;9.93;2.38;;;;;;;19.17;48.29;99807.84;5037669;28;20364;-80
2023/04/02 10:44:42;;;;;;;2.55;1.67;;;;;;;18.96;48.54;99816.03;4994186;28;20113;-79
2023/04/02 10:47:21;;;;;;;5.80;2.33;;;;;;;18.86;49.09;99815.56;4992355;28;20094;-78
2023/04/02 10:50:30;;;;;;;26.25;3.95;;;;;;;18.88;49.37;99810.75;5008691;28;20121;-78
2023/04/02 10:53:07;;;;;;;4.85;1.85;;;;;;;19.00;48.95;99817.34;4931034;29;20048;-79
2023/04/02 10:55:41;;;;;;;15.57;2.78;;;;;;;19.00;48.75;99828.25;4931544;29;20095;-78
2023/04/02 10:58:19;;;;;;;8.43;2.70;;;;;;;18.98;48.56;99797.63;4931550;29;20123;-81
2023/04/02 11:00:46;;;;;;;12.23;2.58;;;;;;;19.18;48.47;99819.56;4932358;29;20032;-82
2023/04/02 11:03:53;;;;;;;6.32;2.75;;;;;;;19.29;47.86;99810.84;4943688;29;20072;-82
2023/04/02 11:06:23;;;;;;;9.43;3.00;;;;;;;19.31;47.63;99809.59;4901662;29;20044;-81
2023/04/02 11:08:53;;;;;;;5.25;2.47;;;;;;;19.29;47.47;99813.56;4893168;29;20050;-81
2023/04/02 11:11:22;;;;;;;10.35;2.50;;;;;;;19.23;47.41;99807.03;4893456;29;20040;-79
2023/04/02 11:14:17;;;;;;;6.03;2.28;;;;;;;19.08;47.71;99811.72;4893175;29;20041;-79
2023/04/02 11:16:43;;;;;;;6.28;2.45;;;;;;;18.85;48.22;99813.88;4912759;29;20052;-82
2023/04/02 11:19:17;;;;;;;9.27;2.35;;;;;;;18.90;48.20;99808.66;4911915;29;20068;-81
2023/04/02 11:21:54;;;;;;;5.88;2.45;;;;;;;18.91;48.30;99813.94;4911615;29;20048;-80
2023/04/02 11:24:36;;;;;;;8.10;2.47;;;;;;;18.87;47.99;99812.63;4911966;29;20071;-80
2023/04/02 11:27:10;;;;;;;6.55;2.55;;;;;;;18.97;47.14;99812.28;4912152;29;20420;-81
2023/04/02 11:30:10;;;;;;;14.45;2.13;;;;;;;19.01;46.70;99824.50;4958740;28;20049;-80
2023/04/02 11:32:35;;;;;;;4.47;2.03;;;;;;;19.11;46.27;99824.97;5007960;28;20037;-80
2023/04/02 11:35:30;;;;;;;6.80;2.00;;;;;;;19.12;45.98;99809.44;5008115;28;20401;-81
2023/04/02 11:38:04;;;;;;;4.30;1.88;;;;;;;19.13;46.19;99811.16;4969859;28;20442;-82
2023/04/02 11:40:50;;;;;;;7.47;2.13;;;;;;;19.10;46.19;99817.00;5018640;28;20086;-82
2023/04/02 11:43:35;;;;;;;6.88;2.20;;;;;;;19.10;46.27;99812.41;5049294;28;20036;-81
2023/04/02 11:46:05;;;;;;;13.95;3.00;;;;;;;19.16;46.59;99814.31;5048570;28;20500;-80
2023/04/02 11:48:35;;;;;;;5.13;1.92;;;;;;;19.41;46.06;99817.44;5048633;28;20025;-82
2023/04/02 11:51:21;;;;;;;5.90;1.50;;;;;;;19.52;45.29;99804.06;5048000;28;20044;-82
2023/04/02 11:53:48;;;;;;;19.00;2.85;;;;;;;19.69;45.66;99818.22;5048517;28;20044;-81
2023/04/02 11:56:31;;;;;;;2.38;1.35;;;;;;;20.01;44.04;99813.91;5031321;28;20025;-81
2023/04/02 11:59:09;;;;;;;7.63;2.25;;;;;;;20.23;44.02;99811.88;5055774;28;20167;-81
2023/04/02 12:02:10;;;;;;;3.20;1.40;;;;;;;20.37;42.66;99811.72;5057008;28;20036;-81
2023/04/02 12:04:35;;;;;;;2.50;1.13;;;;;;;20.44;42.06;99812.56;5047038;28;20106;-82
2023/04/02 12:07:35;;;;;;;2.95;1.20;;;;;;;20.31;41.80;99820.75;5048177;28;20084;-79
2023/04/02 12:10:03;;;;;;;4.95;1.52;;;;;;;20.12;41.77;99821.50;5070241;28;20037;-82